createdAt,value
2022-12-13T00:00:57.240Z,49.72
2022-12-13T00:03:23.849Z,44.65
2022-12-13T00:05:50.457Z,30.42
2022-12-13T00:08:17.324Z,30.92
2022-12-13T00:10:43.949Z,27.50
2022-12-13T00:13:10.523Z,37.78
2022-12-13T00:15:37.097Z,26.02
2022-12-13T00:18:03.795Z,40.47
2022-12-13T00:20:30.373Z,38.22
2022-12-13T00:22:57.421Z,38.60
2022-12-13T00:25:24.056Z,34.92
2022-12-13T00:27:50.645Z,33.95
2022-12-13T00:30:17.252Z,32.63
2022-12-13T00:32:43.812Z,25.15
2022-12-13T00:35:10.407Z,26.83
2022-12-13T00:37:37.001Z,42.38
2022-12-13T00:40:04.153Z,30.27
2022-12-13T00:42:30.875Z,29.05
2022-12-13T00:44:57.474Z,30.00
2022-12-13T00:47:26.316Z,30.40
2022-12-13T00:49:52.885Z,32.53
2022-12-13T00:52:20.249Z,31.65
2022-12-13T00:54:47.103Z,50.15
2022-12-13T00:57:13.705Z,33.80
2022-12-13T00:59:40.306Z,36.35
2022-12-13T01:02:06.881Z,33.63
2022-12-13T01:04:33.576Z,30.80
2022-12-13T01:07:00.278Z,29.58
2022-12-13T01:09:29.631Z,27.38
2022-12-13T01:11:58.673Z,23.60
2022-12-13T01:14:26.064Z,29.67
2022-12-13T01:16:55.705Z,30.23
2022-12-13T01:19:23.699Z,17.85
2022-12-13T01:21:54.185Z,27.08
2022-12-13T01:24:22.800Z,23.63
2022-12-13T01:26:49.426Z,26.75
2022-12-13T01:29:16.508Z,25.33
2022-12-13T01:31:43.081Z,18.83
2022-12-13T01:34:13.946Z,27.60
2022-12-13T01:36:42.412Z,38.73
2022-12-13T01:39:15.089Z,28.13
2022-12-13T01:41:59.255Z,24.33
2022-12-13T01:44:59.989Z,32.15
2022-12-13T01:47:45.291Z,31.90
2022-12-13T01:50:17.776Z,25.48
2022-12-13T01:52:45.754Z,33.00
2022-12-13T01:55:13.604Z,25.52
2022-12-13T01:57:45.713Z,29.95
2022-12-13T02:00:13.740Z,30.75
2022-12-13T02:02:40.902Z,30.80
2022-12-13T02:05:14.297Z,34.63
2022-12-13T02:07:43.049Z,27.40
2022-12-13T02:10:10.595Z,33.55
2022-12-13T02:12:38.105Z,27.80
2022-12-13T02:15:14.704Z,42.88
2022-12-13T02:18:01.944Z,26.50
2022-12-13T02:20:40.287Z,25.65
2022-12-13T02:23:31.989Z,30.02
2022-12-13T02:26:25.707Z,43.78
2022-12-13T02:29:30.086Z,28.40
2022-12-13T02:32:12.876Z,34.47
2022-12-13T02:35:01.786Z,31.67
2022-12-13T02:37:44.641Z,30.42
2022-12-13T02:40:38.091Z,24.67
2022-12-13T02:43:18.355Z,34.60
2022-12-13T02:45:51.416Z,20.05
2022-12-13T02:48:25.136Z,28.80
2022-12-13T02:50:53.615Z,28.13
2022-12-13T02:53:22.506Z,42.50
2022-12-13T02:55:49.165Z,33.75
2022-12-13T02:58:30.345Z,26.77
2022-12-13T03:01:28.950Z,28.75
2022-12-13T03:04:34.958Z,28.75
2022-12-13T03:07:12.237Z,34.72
2022-12-13T03:09:50.843Z,26.05
2022-12-13T03:12:53.001Z,30.67
2022-12-13T03:15:30.336Z,46.00
2022-12-13T03:18:04.957Z,23.48
2022-12-13T03:20:31.896Z,25.10
2022-12-13T03:22:59.253Z,36.05
2022-12-13T03:25:31.253Z,30.45
2022-12-13T03:28:02.016Z,29.25
2022-12-13T03:30:30.829Z,23.73
2022-12-13T03:32:57.414Z,33.67
2022-12-13T03:35:25.144Z,28.25
2022-12-13T03:38:02.172Z,26.08
2022-12-13T03:40:30.228Z,23.85
2022-12-13T03:42:57.052Z,34.50
2022-12-13T03:45:24.088Z,21.38
2022-12-13T03:47:50.675Z,22.70
2022-12-13T03:50:26.826Z,22.13
2022-12-13T03:53:01.272Z,24.35
2022-12-13T03:55:28.368Z,34.67
2022-12-13T03:57:54.943Z,35.22
2022-12-13T04:00:22.117Z,33.35
2022-12-13T04:02:48.785Z,28.00
2022-12-13T04:05:15.930Z,42.28
2022-12-13T04:07:48.014Z,37.80
2022-12-13T04:10:25.362Z,35.33
2022-12-13T04:13:12.243Z,31.42
2022-12-13T04:15:39.429Z,32.58
2022-12-13T04:18:06.061Z,27.33
2022-12-13T04:20:32.604Z,24.05
2022-12-13T04:22:59.220Z,29.25
2022-12-13T04:25:26.450Z,28.27
2022-12-13T04:27:53.091Z,21.20
2022-12-13T04:30:19.738Z,20.33
2022-12-13T04:32:46.331Z,23.90
2022-12-13T04:35:13.009Z,39.20
2022-12-13T04:37:39.740Z,25.42
2022-12-13T04:40:10.689Z,23.00
2022-12-13T04:42:37.739Z,25.30
2022-12-13T04:45:04.860Z,28.20
2022-12-13T04:47:31.490Z,23.42
2022-12-13T04:49:58.141Z,38.80
2022-12-13T04:52:24.759Z,25.67
2022-12-13T04:54:55.672Z,20.05
2022-12-13T04:57:23.262Z,30.67
2022-12-13T04:59:50.034Z,23.05
2022-12-13T05:02:23.107Z,21.50
2022-12-13T05:04:54.159Z,33.28
2022-12-13T05:07:21.609Z,31.23
2022-12-13T05:09:48.298Z,24.30
2022-12-13T05:12:22.408Z,30.48
2022-12-13T05:14:50.795Z,34.17
2022-12-13T05:17:17.456Z,33.33
2022-12-13T05:19:44.179Z,25.38
2022-12-13T05:22:19.837Z,36.40
2022-12-13T05:24:47.910Z,32.38
2022-12-13T05:27:24.508Z,26.05
2022-12-13T05:30:04.485Z,36.67
2022-12-13T05:32:43.543Z,28.05
2022-12-13T05:35:13.642Z,33.70
2022-12-13T05:37:40.656Z,29.70
2022-12-13T05:40:08.241Z,30.70
2022-12-13T05:42:36.282Z,35.47
2022-12-13T05:45:03.009Z,21.55
2022-12-13T05:47:29.573Z,22.55
2022-12-13T05:49:56.208Z,25.75
2022-12-13T05:52:30.589Z,24.23
2022-12-13T05:55:12.797Z,26.70
2022-12-13T05:57:39.388Z,27.83
2022-12-13T06:00:29.918Z,22.65
2022-12-13T06:02:55.478Z,29.27
2022-12-13T06:05:22.241Z,20.30
2022-12-13T06:07:52.203Z,38.92
2022-12-13T06:10:23.403Z,19.98
2022-12-13T06:12:50.171Z,22.98
2022-12-13T06:15:22.708Z,25.00
2022-12-13T06:17:49.737Z,25.20
2022-12-13T06:20:23.615Z,36.75
2022-12-13T06:22:54.129Z,22.67
2022-12-13T06:25:30.935Z,21.73
2022-12-13T06:28:00.820Z,25.25
2022-12-13T06:30:29.091Z,26.98
2022-12-13T06:32:55.937Z,22.80
2022-12-13T06:35:28.190Z,32.25
2022-12-13T06:38:01.413Z,31.52
2022-12-13T06:42:58.552Z,32.42
2022-12-13T06:45:25.882Z,28.52
2022-12-13T06:47:52.509Z,39.80
2022-12-13T06:50:19.340Z,34.47
2022-12-13T06:52:47.079Z,38.80
2022-12-13T06:55:14.563Z,32.13
2022-12-13T06:57:41.702Z,22.95
2022-12-13T07:00:10.280Z,27.95
2022-12-13T07:02:38.477Z,26.70
2022-12-13T07:05:05.682Z,33.58
2022-12-13T07:07:32.330Z,24.75
2022-12-13T07:09:58.908Z,25.67
2022-12-13T07:12:25.589Z,39.75
2022-12-13T07:14:52.444Z,43.60
2022-12-13T07:17:33.811Z,27.85
2022-12-13T07:22:38.793Z,29.35
2022-12-13T07:25:28.692Z,32.38
2022-12-13T07:28:01.568Z,24.83
2022-12-13T07:30:33.668Z,24.10
2022-12-13T07:33:04.891Z,32.15
2022-12-13T07:35:32.398Z,26.13
2022-12-13T07:38:04.688Z,23.55
2022-12-13T07:40:34.664Z,34.58
2022-12-13T07:43:01.269Z,24.80
2022-12-13T07:45:27.836Z,28.83
2022-12-13T07:47:54.506Z,29.65
2022-12-13T07:50:24.831Z,40.55
2022-12-13T07:52:53.373Z,27.60
2022-12-13T07:55:23.241Z,37.33
2022-12-13T07:58:08.470Z,34.28
2022-12-13T08:00:35.728Z,32.00
2022-12-13T08:03:02.523Z,27.67
2022-12-13T08:05:29.272Z,54.03
2022-12-13T08:08:07.648Z,27.13
2022-12-13T08:10:34.363Z,23.02
2022-12-13T08:13:04.650Z,27.67
2022-12-13T08:15:31.767Z,27.15
2022-12-13T08:18:00.800Z,30.15
2022-12-13T08:20:27.873Z,30.58
2022-12-13T08:23:01.951Z,27.10
2022-12-13T08:25:30.446Z,27.17
2022-12-13T08:28:01.687Z,27.13
2022-12-13T08:30:30.099Z,24.58
2022-12-13T08:32:57.534Z,30.85
2022-12-13T08:35:33.477Z,31.02
2022-12-13T08:38:01.078Z,31.88
2022-12-13T08:40:27.760Z,39.53
2022-12-13T08:42:55.733Z,36.50
2022-12-13T08:45:24.057Z,18.73
2022-12-13T08:47:50.656Z,41.50
2022-12-13T08:50:17.394Z,23.20
2022-12-13T08:52:44.909Z,25.23
2022-12-13T08:55:13.152Z,38.60
2022-12-13T08:57:40.940Z,33.35
2022-12-13T09:00:11.391Z,30.50
2022-12-13T09:02:38.944Z,35.45
2022-12-13T09:05:07.435Z,37.05
2022-12-13T09:07:36.030Z,37.80
2022-12-13T09:10:25.425Z,35.42
2022-12-13T09:12:51.736Z,54.38
2022-12-13T09:15:22.261Z,30.23
2022-12-13T09:17:52.051Z,35.55
2022-12-13T09:20:28.578Z,40.05
2022-12-13T09:23:01.597Z,38.22
2022-12-13T09:25:37.437Z,34.00
2022-12-13T09:28:06.916Z,40.35
2022-12-13T09:30:34.020Z,40.75
2022-12-13T09:33:17.567Z,52.13
2022-12-13T09:35:47.220Z,42.53
2022-12-13T09:38:13.869Z,36.90
2022-12-13T09:40:44.611Z,31.70
2022-12-13T09:43:32.212Z,35.53
2022-12-13T09:46:05.010Z,48.22
2022-12-13T09:48:40.705Z,44.70
2022-12-13T09:51:18.309Z,48.80
2022-12-13T09:53:54.844Z,42.92
2022-12-13T09:56:25.243Z,51.00
2022-12-13T09:58:53.666Z,45.90
2022-12-13T10:01:22.297Z,41.33
2022-12-13T10:03:53.011Z,42.00
2022-12-13T10:06:28.475Z,43.83
2022-12-13T10:08:58.767Z,44.28
2022-12-13T10:11:32.341Z,35.50
2022-12-13T10:14:14.204Z,32.47
2022-12-13T10:16:46.585Z,38.93
2022-12-13T10:19:29.299Z,43.38
2022-12-13T10:22:01.732Z,36.38
2022-12-13T10:24:47.432Z,43.28
2022-12-13T10:27:17.869Z,38.75
2022-12-13T10:30:00.785Z,34.17
2022-12-13T10:32:28.099Z,38.33
2022-12-13T10:34:55.277Z,40.75
2022-12-13T10:37:24.591Z,37.60
2022-12-13T10:39:51.157Z,38.40
2022-12-13T10:42:22.702Z,46.85
2022-12-13T10:45:10.441Z,42.63
2022-12-13T10:47:37.197Z,40.67
2022-12-13T10:50:04.317Z,46.58
2022-12-13T10:52:47.393Z,43.05
2022-12-13T10:55:30.969Z,35.00
2022-12-13T10:58:00.796Z,45.53
2022-12-13T11:00:35.195Z,40.80
2022-12-13T11:03:02.175Z,41.28
2022-12-13T11:05:34.629Z,40.47
2022-12-13T11:08:23.768Z,51.90
2022-12-13T11:10:59.360Z,45.17
2022-12-13T11:13:38.608Z,40.25
2022-12-13T11:16:33.867Z,33.95
2022-12-13T11:19:05.613Z,40.92
2022-12-13T11:21:34.854Z,32.92
2022-12-13T11:24:05.477Z,36.05
2022-12-13T11:26:36.308Z,38.08
2022-12-13T11:29:21.754Z,43.90
2022-12-13T11:31:54.416Z,93.38
2022-12-13T11:34:44.861Z,80.97
2022-12-13T11:37:17.530Z,64.28
2022-12-13T11:40:01.820Z,46.92
2022-12-13T11:42:32.324Z,36.30
2022-12-13T11:45:22.428Z,43.92
2022-12-13T11:48:06.450Z,42.22
2022-12-13T11:50:39.933Z,32.78
2022-12-13T11:53:38.202Z,43.22
2022-12-13T11:56:19.472Z,33.05
2022-12-13T11:59:20.657Z,46.35
2022-12-13T12:02:18.770Z,32.13
2022-12-13T12:05:00.832Z,35.90
2022-12-13T12:07:36.118Z,42.50
2022-12-13T12:10:06.428Z,42.30
2022-12-13T12:12:35.485Z,48.83
2022-12-13T12:15:17.701Z,34.35
2022-12-13T12:17:53.914Z,34.55
2022-12-13T12:20:53.613Z,42.53
2022-12-13T12:23:40.017Z,46.63
2022-12-13T12:26:15.380Z,50.33
2022-12-13T12:29:15.486Z,39.05
2022-12-13T12:32:02.667Z,34.53
2022-12-13T12:34:52.384Z,36.72
2022-12-13T12:37:30.966Z,40.53
2022-12-13T12:40:09.534Z,43.45
2022-12-13T12:43:27.093Z,44.28
2022-12-13T12:46:01.904Z,38.78
2022-12-13T12:49:00.553Z,37.85
2022-12-13T12:51:45.869Z,40.17
2022-12-13T12:54:34.347Z,36.55
2022-12-13T12:57:43.394Z,30.13
2022-12-13T13:00:17.140Z,25.25
2022-12-13T13:02:43.755Z,34.67
2022-12-13T13:05:23.756Z,35.63
2022-12-13T13:08:04.571Z,29.48
2022-12-13T13:10:31.817Z,40.40
2022-12-13T13:13:32.896Z,39.22
2022-12-13T13:15:54.309Z,32.17
2022-12-13T13:18:45.487Z,29.45
2022-12-13T13:21:25.660Z,40.72
2022-12-13T13:24:03.867Z,31.15
2022-12-13T13:26:45.257Z,41.35
2022-12-13T13:29:28.484Z,36.25
2022-12-13T13:32:28.282Z,32.78
2022-12-13T13:35:28.859Z,24.45
2022-12-13T13:37:56.364Z,44.97
2022-12-13T13:40:37.184Z,39.33
2022-12-13T13:43:06.606Z,37.33
2022-12-13T13:45:51.768Z,42.22
2022-12-13T13:48:27.655Z,36.03
2022-12-13T13:51:20.288Z,33.58
2022-12-13T13:54:09.034Z,34.45
2022-12-13T13:56:50.140Z,26.73
2022-12-13T14:00:01.348Z,39.83
2022-12-13T14:02:51.202Z,26.35
2022-12-13T14:05:26.673Z,36.08
2022-12-13T14:07:59.107Z,36.10
2022-12-13T14:10:29.338Z,39.60
2022-12-13T14:13:51.937Z,35.97
2022-12-13T14:16:39.308Z,31.27
2022-12-13T14:19:45.870Z,41.25
2022-12-13T14:22:38.320Z,32.22
2022-12-13T14:28:02.380Z,30.60
2022-12-13T14:30:29.685Z,29.33
2022-12-13T14:32:57.487Z,38.05
2022-12-13T14:35:30.386Z,35.30
2022-12-13T14:38:04.093Z,37.35
2022-12-13T14:40:49.408Z,44.70
2022-12-13T14:43:28.451Z,33.58
2022-12-13T14:46:00.888Z,33.17
2022-12-13T14:48:32.472Z,34.83
2022-12-13T14:50:59.048Z,40.22
2022-12-13T14:53:37.309Z,39.30
2022-12-13T14:56:27.720Z,36.05
2022-12-13T14:59:03.901Z,32.88
2022-12-13T15:01:34.703Z,36.17
2022-12-13T15:04:26.876Z,43.58
2022-12-13T15:07:06.895Z,34.63
2022-12-13T15:09:41.456Z,30.83
2022-12-13T15:12:25.294Z,35.60
2022-12-13T15:15:28.929Z,47.60
2022-12-13T15:18:07.900Z,33.20
2022-12-13T15:20:39.782Z,34.30
2022-12-13T15:23:18.413Z,30.27
2022-12-13T15:25:46.523Z,42.05
2022-12-13T15:28:21.184Z,28.58
2022-12-13T15:30:48.730Z,33.55
2022-12-13T15:33:25.228Z,38.72
2022-12-13T15:36:13.809Z,42.75
2022-12-13T15:38:48.749Z,38.38
2022-12-13T15:41:20.277Z,39.22
2022-12-13T15:43:51.279Z,41.17
2022-12-13T15:46:30.646Z,44.53
2022-12-13T15:49:01.099Z,45.85
2022-12-13T15:51:30.784Z,49.95
2022-12-13T15:54:06.417Z,52.95
2022-12-13T15:56:41.688Z,50.42
2022-12-13T15:59:26.377Z,54.03
2022-12-13T16:01:58.012Z,61.47
2022-12-13T16:04:28.561Z,33.95
2022-12-13T16:06:56.044Z,49.95
2022-12-13T16:09:25.597Z,48.95
2022-12-13T16:12:01.232Z,41.30
2022-12-13T16:14:31.436Z,50.30
2022-12-13T16:17:26.673Z,40.38
2022-12-13T16:19:55.826Z,45.67
2022-12-13T16:22:23.918Z,49.08
2022-12-13T16:24:56.272Z,38.03
2022-12-13T16:27:23.169Z,71.07
2022-12-13T16:29:49.799Z,51.55
2022-12-13T16:32:19.304Z,50.70
2022-12-13T16:34:46.160Z,61.80
2022-12-13T16:37:25.485Z,43.97
2022-12-13T16:39:52.855Z,41.95
2022-12-13T16:42:19.617Z,42.20
2022-12-13T16:44:47.444Z,47.13
2022-12-13T16:47:22.150Z,45.25
2022-12-13T16:49:53.808Z,38.92
2022-12-13T16:52:21.817Z,47.13
2022-12-13T16:54:48.373Z,41.55
2022-12-13T16:57:14.961Z,49.63
2022-12-13T16:59:41.522Z,49.08
2022-12-13T17:02:17.124Z,53.72
2022-12-13T17:04:43.843Z,51.42
2022-12-13T17:07:10.439Z,49.05
2022-12-13T17:09:36.988Z,44.78
2022-12-13T17:12:03.721Z,41.80
2022-12-13T17:14:30.286Z,49.00
2022-12-13T17:16:58.794Z,43.35
2022-12-13T17:19:25.368Z,43.25
2022-12-13T17:21:52.049Z,50.13
2022-12-13T17:24:18.613Z,59.55
2022-12-13T17:26:53.914Z,52.20
2022-12-13T17:29:22.449Z,50.50
2022-12-13T17:31:49.025Z,50.25
2022-12-13T17:34:15.612Z,60.08
2022-12-13T17:36:43.456Z,55.35
2022-12-13T17:39:11.988Z,51.38
2022-12-13T17:41:38.985Z,65.25
2022-12-13T17:44:06.393Z,50.97
2022-12-13T17:46:34.572Z,43.45
2022-12-13T17:49:01.485Z,45.97
2022-12-13T17:51:28.108Z,40.28
2022-12-13T17:53:54.760Z,45.67
2022-12-13T17:56:21.974Z,37.83
2022-12-13T17:58:48.701Z,33.17
2022-12-13T18:01:25.624Z,46.50
2022-12-13T18:03:55.471Z,34.67
2022-12-13T18:06:23.466Z,134.32
2022-12-13T18:08:50.424Z,111.18
2022-12-13T18:11:34.890Z,97.25
2022-12-13T18:14:03.490Z,94.28
2022-12-13T18:16:36.871Z,83.80
2022-12-13T18:19:07.170Z,65.70
2022-12-13T18:21:35.264Z,57.78
2022-12-13T18:24:01.900Z,63.20
2022-12-13T18:26:28.608Z,52.58
2022-12-13T18:28:55.264Z,49.55
2022-12-13T18:31:24.384Z,61.78
2022-12-13T18:33:53.109Z,73.32
2022-12-13T18:36:22.040Z,70.93
2022-12-13T18:38:48.801Z,62.53
2022-12-13T18:41:18.143Z,61.25
2022-12-13T18:43:45.656Z,49.97
2022-12-13T18:46:14.306Z,55.13
2022-12-13T18:48:41.568Z,58.95
2022-12-13T18:51:09.776Z,62.42
2022-12-13T18:53:37.843Z,67.60
2022-12-13T18:56:16.088Z,65.80
2022-12-13T18:58:45.762Z,71.90
2022-12-13T19:01:13.066Z,63.80
2022-12-13T19:03:41.476Z,71.97
2022-12-13T19:06:08.116Z,78.57
2022-12-13T19:08:36.256Z,78.65
2022-12-13T19:11:03.447Z,71.40
2022-12-13T19:13:31.680Z,65.60
2022-12-13T19:16:05.128Z,58.42
2022-12-13T19:18:31.983Z,59.50
2022-12-13T19:20:58.764Z,75.75
2022-12-13T19:23:25.797Z,56.17
2022-12-13T19:25:52.708Z,67.03
2022-12-13T19:28:19.686Z,68.00
2022-12-13T19:30:47.516Z,53.00
2022-12-13T19:33:14.944Z,58.65
2022-12-13T19:35:45.309Z,64.30
2022-12-13T19:38:12.224Z,56.40
2022-12-13T19:40:40.184Z,68.18
2022-12-13T19:43:06.884Z,61.38
2022-12-13T19:45:33.829Z,55.00
2022-12-13T19:48:00.655Z,44.22
2022-12-13T19:50:28.333Z,48.45
2022-12-13T19:52:55.234Z,60.20
2022-12-13T19:55:21.852Z,43.55
2022-12-13T19:57:48.574Z,59.22
2022-12-13T20:00:15.716Z,55.30
2022-12-13T20:02:42.522Z,51.75
2022-12-13T20:05:09.601Z,51.17
2022-12-13T20:07:36.448Z,47.17
2022-12-13T20:10:04.138Z,65.82
2022-12-13T20:12:33.086Z,51.13
2022-12-13T20:15:05.455Z,74.85
2022-12-13T20:17:32.476Z,64.82
2022-12-13T20:19:59.520Z,53.83
2022-12-13T20:22:26.183Z,57.25
2022-12-13T20:24:52.905Z,72.32
2022-12-13T20:27:19.896Z,82.60
2022-12-13T20:29:49.008Z,56.83
2022-12-13T20:32:16.277Z,61.85
2022-12-13T20:34:42.837Z,44.25
2022-12-13T20:37:09.826Z,56.15
2022-12-13T20:39:36.809Z,45.97
2022-12-13T20:42:03.574Z,45.60
2022-12-13T20:44:30.253Z,56.92
2022-12-13T20:46:56.957Z,45.33
2022-12-13T20:49:23.872Z,49.90
2022-12-13T20:51:50.571Z,52.53
2022-12-13T20:54:17.343Z,55.72
2022-12-13T20:56:43.975Z,41.92
2022-12-13T20:59:15.169Z,41.72
2022-12-13T21:01:43.864Z,44.38
2022-12-13T21:04:15.591Z,38.78
2022-12-13T21:06:42.771Z,32.35
2022-12-13T21:09:10.441Z,50.17
2022-12-13T21:11:46.661Z,41.88
2022-12-13T21:14:22.399Z,37.30
2022-12-13T21:16:51.319Z,51.25
2022-12-13T21:19:21.449Z,37.90
2022-12-13T21:21:48.452Z,52.97
2022-12-13T21:24:16.976Z,37.35
2022-12-13T21:26:44.273Z,40.55
2022-12-13T21:29:12.929Z,48.78
2022-12-13T21:31:43.267Z,42.50
2022-12-13T21:34:11.386Z,45.88
2022-12-13T21:36:45.916Z,40.28
2022-12-13T21:39:22.675Z,46.10
2022-12-13T21:41:49.969Z,36.17
2022-12-13T21:44:17.628Z,45.38
2022-12-13T21:49:30.776Z,38.95
2022-12-13T21:51:57.452Z,37.72
2022-12-13T21:54:24.097Z,40.53
2022-12-13T21:57:09.264Z,37.28
2022-12-13T21:59:35.939Z,51.03
2022-12-13T22:02:24.459Z,39.33
2022-12-13T22:04:54.829Z,39.67
2022-12-13T22:07:25.817Z,55.08
2022-12-13T22:09:53.514Z,28.97
2022-12-13T22:12:33.545Z,34.83
2022-12-13T22:15:00.709Z,48.00
2022-12-13T22:17:35.307Z,39.95
2022-12-13T22:20:05.143Z,35.85
2022-12-13T22:22:31.852Z,34.83
2022-12-13T22:24:58.441Z,37.63
2022-12-13T22:27:25.718Z,27.30
2022-12-13T22:29:54.390Z,48.47
2022-12-13T22:32:21.244Z,39.25
2022-12-13T22:34:48.336Z,39.63
2022-12-13T22:37:14.939Z,33.25
2022-12-13T22:39:41.532Z,34.90
2022-12-13T22:42:08.209Z,36.20
2022-12-13T22:44:34.999Z,43.65
2022-12-13T22:47:01.609Z,34.95
2022-12-13T22:49:28.158Z,32.75
2022-12-13T22:51:54.839Z,38.60
2022-12-13T22:54:21.401Z,38.55
2022-12-13T22:56:51.304Z,41.28
2022-12-13T22:59:17.861Z,36.55
2022-12-13T23:01:47.525Z,30.38
2022-12-13T23:04:14.644Z,31.83
2022-12-13T23:06:41.596Z,41.92
2022-12-13T23:09:11.416Z,45.17
2022-12-13T23:11:56.573Z,46.03
2022-12-13T23:14:31.821Z,34.38
2022-12-13T23:16:59.504Z,32.40
2022-12-13T23:19:50.040Z,29.73
2022-12-13T23:22:13.692Z,25.35
2022-12-13T23:24:40.303Z,36.28
2022-12-13T23:27:06.907Z,31.55
2022-12-13T23:29:33.514Z,40.22
2022-12-13T23:32:00.168Z,39.55
2022-12-13T23:34:26.712Z,39.85
2022-12-13T23:36:53.260Z,38.80
2022-12-13T23:39:19.825Z,55.08
2022-12-13T23:41:46.412Z,45.42
2022-12-13T23:44:12.964Z,48.15
2022-12-13T23:46:39.661Z,60.63
2022-12-13T23:49:06.698Z,42.30
2022-12-13T23:51:34.457Z,52.28
2022-12-13T23:54:01.089Z,44.63
2022-12-13T23:56:27.661Z,37.42
2022-12-13T23:58:54.229Z,42.58
